sensor_id;sensor_type;location;lat;lon;timestamp;temperature;humidity
2010;DHT22;1008;47.404;8.502;2022-07-06T00:01:45;21.90;99.90
2010;DHT22;1008;47.404;8.502;2022-07-06T00:04:12;21.70;99.90
2010;DHT22;1008;47.404;8.502;2022-07-06T00:06:39;21.70;99.90
2010;DHT22;1008;47.404;8.502;2022-07-06T00:09:07;21.50;99.90
2010;DHT22;1008;47.404;8.502;2022-07-06T00:11:34;21.60;99.90
2010;DHT22;1008;47.404;8.502;2022-07-06T00:14:01;21.60;99.90
2010;DHT22;1008;47.404;8.502;2022-07-06T00:16:28;21.70;99.90
2010;DHT22;1008;47.404;8.502;2022-07-06T00:18:54;21.70;99.90
2010;DHT22;1008;47.404;8.502;2022-07-06T00:21:21;21.60;99.90
2010;DHT22;1008;47.404;8.502;2022-07-06T00:23:48;21.60;99.90
2010;DHT22;1008;47.404;8.502;2022-07-06T00:26:16;21.70;99.90
2010;DHT22;1008;47.404;8.502;2022-07-06T00:28:43;21.70;99.90
2010;DHT22;1008;47.404;8.502;2022-07-06T00:31:10;21.70;99.90
2010;DHT22;1008;47.404;8.502;2022-07-06T00:33:37;21.70;99.90
2010;DHT22;1008;47.404;8.502;2022-07-06T00:36:04;22.00;99.90
2010;DHT22;1008;47.404;8.502;2022-07-06T00:38:31;21.80;99.90
2010;DHT22;1008;47.404;8.502;2022-07-06T00:40:58;21.80;99.90
2010;DHT22;1008;47.404;8.502;2022-07-06T00:43:26;21.70;99.90
2010;DHT22;1008;47.404;8.502;2022-07-06T00:45:52;21.70;99.90
2010;DHT22;1008;47.404;8.502;2022-07-06T00:48:19;21.90;99.90
2010;DHT22;1008;47.404;8.502;2022-07-06T00:50:46;21.80;99.90
2010;DHT22;1008;47.404;8.502;2022-07-06T00:53:13;21.70;99.90
2010;DHT22;1008;47.404;8.502;2022-07-06T00:55:40;21.60;99.90
2010;DHT22;1008;47.404;8.502;2022-07-06T00:58:08;21.40;99.90
2010;DHT22;1008;47.404;8.502;2022-07-06T01:00:36;21.30;99.90
2010;DHT22;1008;47.404;8.502;2022-07-06T01:03:04;21.30;99.90
2010;DHT22;1008;47.404;8.502;2022-07-06T01:05:31;21.30;99.90
2010;DHT22;1008;47.404;8.502;2022-07-06T01:07:57;21.40;99.90
2010;DHT22;1008;47.404;8.502;2022-07-06T01:10:26;21.10;99.90
2010;DHT22;1008;47.404;8.502;2022-07-06T01:12:53;21.10;99.90
2010;DHT22;1008;47.404;8.502;2022-07-06T01:15:22;21.10;99.90
2010;DHT22;1008;47.404;8.502;2022-07-06T01:17:51;21.10;99.90
2010;DHT22;1008;47.404;8.502;2022-07-06T01:20:20;21.10;99.90
2010;DHT22;1008;47.404;8.502;2022-07-06T01:22:49;21.10;99.90
2010;DHT22;1008;47.404;8.502;2022-07-06T01:25:16;21.00;99.90
2010;DHT22;1008;47.404;8.502;2022-07-06T01:27:44;20.90;99.90
2010;DHT22;1008;47.404;8.502;2022-07-06T01:30:12;21.00;99.90
2010;DHT22;1008;47.404;8.502;2022-07-06T01:32:40;21.10;99.90
2010;DHT22;1008;47.404;8.502;2022-07-06T01:35:09;21.00;99.90
2010;DHT22;1008;47.404;8.502;2022-07-06T01:37:37;21.00;99.90
2010;DHT22;1008;47.404;8.502;2022-07-06T01:40:06;21.10;99.90
2010;DHT22;1008;47.404;8.502;2022-07-06T01:42:34;21.10;99.90
2010;DHT22;1008;47.404;8.502;2022-07-06T01:45:01;20.90;99.90
2010;DHT22;1008;47.404;8.502;2022-07-06T01:47:28;20.90;99.90
2010;DHT22;1008;47.404;8.502;2022-07-06T01:49:58;21.00;99.90
2010;DHT22;1008;47.404;8.502;2022-07-06T01:52:25;20.90;99.90
2010;DHT22;1008;47.404;8.502;2022-07-06T01:54:53;20.80;99.90
2010;DHT22;1008;47.404;8.502;2022-07-06T01:57:20;20.70;99.90
2010;DHT22;1008;47.404;8.502;2022-07-06T01:59:47;20.50;99.90
2010;DHT22;1008;47.404;8.502;2022-07-06T02:02:13;20.40;99.90
2010;DHT22;1008;47.404;8.502;2022-07-06T02:04:40;20.30;99.90
2010;DHT22;1008;47.404;8.502;2022-07-06T02:07:07;20.20;99.90
2010;DHT22;1008;47.404;8.502;2022-07-06T02:09:34;20.10;99.90
2010;DHT22;1008;47.404;8.502;2022-07-06T02:12:02;20.10;99.90
2010;DHT22;1008;47.404;8.502;2022-07-06T02:14:29;20.10;99.90
2010;DHT22;1008;47.404;8.502;2022-07-06T02:16:56;20.20;99.90
2010;DHT22;1008;47.404;8.502;2022-07-06T02:19:23;20.20;99.90
2010;DHT22;1008;47.404;8.502;2022-07-06T02:21:49;20.40;99.90
2010;DHT22;1008;47.404;8.502;2022-07-06T02:24:16;20.10;99.90
2010;DHT22;1008;47.404;8.502;2022-07-06T02:26:43;20.10;99.90
2010;DHT22;1008;47.404;8.502;2022-07-06T02:29:11;20.10;99.90
2010;DHT22;1008;47.404;8.502;2022-07-06T02:31:38;20.20;99.90
2010;DHT22;1008;47.404;8.502;2022-07-06T02:34:05;20.30;99.90
2010;DHT22;1008;47.404;8.502;2022-07-06T02:36:31;20.30;99.90
2010;DHT22;1008;47.404;8.502;2022-07-06T02:38:58;20.20;99.90
2010;DHT22;1008;47.404;8.502;2022-07-06T02:41:25;20.20;99.90
2010;DHT22;1008;47.404;8.502;2022-07-06T02:43:52;20.30;99.90
2010;DHT22;1008;47.404;8.502;2022-07-06T02:46:20;20.30;99.90
2010;DHT22;1008;47.404;8.502;2022-07-06T02:48:46;20.00;99.90
2010;DHT22;1008;47.404;8.502;2022-07-06T02:51:13;19.90;99.90
2010;DHT22;1008;47.404;8.502;2022-07-06T02:53:40;19.70;99.90
2010;DHT22;1008;47.404;8.502;2022-07-06T02:56:07;19.80;99.90
2010;DHT22;1008;47.404;8.502;2022-07-06T02:58:33;19.90;99.90
2010;DHT22;1008;47.404;8.502;2022-07-06T03:01:00;20.00;99.90
2010;DHT22;1008;47.404;8.502;2022-07-06T03:03:28;19.90;99.90
2010;DHT22;1008;47.404;8.502;2022-07-06T03:05:55;20.10;99.90
2010;DHT22;1008;47.404;8.502;2022-07-06T03:08:22;20.10;99.90
2010;DHT22;1008;47.404;8.502;2022-07-06T03:10:48;20.10;99.90
2010;DHT22;1008;47.404;8.502;2022-07-06T03:13:15;20.00;99.90
2010;DHT22;1008;47.404;8.502;2022-07-06T03:15:42;20.00;99.90
2010;DHT22;1008;47.404;8.502;2022-07-06T03:18:09;20.10;99.90
2010;DHT22;1008;47.404;8.502;2022-07-06T03:20:37;20.00;99.90
2010;DHT22;1008;47.404;8.502;2022-07-06T03:23:03;20.00;99.90
2010;DHT22;1008;47.404;8.502;2022-07-06T03:25:30;19.90;99.90
2010;DHT22;1008;47.404;8.502;2022-07-06T03:27:58;20.00;99.90
2010;DHT22;1008;47.404;8.502;2022-07-06T03:30:24;19.90;99.90
2010;DHT22;1008;47.404;8.502;2022-07-06T03:32:51;19.90;99.90
2010;DHT22;1008;47.404;8.502;2022-07-06T03:35:18;19.70;99.90
2010;DHT22;1008;47.404;8.502;2022-07-06T03:37:46;19.50;99.90
2010;DHT22;1008;47.404;8.502;2022-07-06T03:40:13;19.40;99.90
2010;DHT22;1008;47.404;8.502;2022-07-06T03:42:40;19.50;99.90
2010;DHT22;1008;47.404;8.502;2022-07-06T03:45:08;19.50;99.90
2010;DHT22;1008;47.404;8.502;2022-07-06T03:47:35;19.40;99.90
2010;DHT22;1008;47.404;8.502;2022-07-06T03:50:03;19.40;99.90
2010;DHT22;1008;47.404;8.502;2022-07-06T03:52:29;19.60;99.90
2010;DHT22;1008;47.404;8.502;2022-07-06T03:54:57;19.50;99.90
2010;DHT22;1008;47.404;8.502;2022-07-06T03:57:24;19.70;99.90
2010;DHT22;1008;47.404;8.502;2022-07-06T03:59:52;19.60;99.90
2010;DHT22;1008;47.404;8.502;2022-07-06T04:02:18;19.50;99.90
2010;DHT22;1008;47.404;8.502;2022-07-06T04:04:45;19.40;99.90
2010;DHT22;1008;47.404;8.502;2022-07-06T04:07:12;19.40;99.90
2010;DHT22;1008;47.404;8.502;2022-07-06T04:09:39;19.40;99.90
2010;DHT22;1008;47.404;8.502;2022-07-06T04:12:07;19.60;99.90
2010;DHT22;1008;47.404;8.502;2022-07-06T04:14:34;19.70;99.90
2010;DHT22;1008;47.404;8.502;2022-07-06T04:17:01;19.60;99.90
2010;DHT22;1008;47.404;8.502;2022-07-06T04:19:49;19.60;99.90
2010;DHT22;1008;47.404;8.502;2022-07-06T04:22:15;19.60;99.90
2010;DHT22;1008;47.404;8.502;2022-07-06T04:24:42;19.40;99.90
2010;DHT22;1008;47.404;8.502;2022-07-06T04:27:11;19.40;99.90
2010;DHT22;1008;47.404;8.502;2022-07-06T04:29:37;19.50;99.90
2010;DHT22;1008;47.404;8.502;2022-07-06T04:32:04;19.50;99.90
2010;DHT22;1008;47.404;8.502;2022-07-06T04:34:31;19.50;99.90
2010;DHT22;1008;47.404;8.502;2022-07-06T04:36:58;19.30;99.90
2010;DHT22;1008;47.404;8.502;2022-07-06T04:39:25;19.50;99.90
2010;DHT22;1008;47.404;8.502;2022-07-06T04:41:53;19.60;99.90
2010;DHT22;1008;47.404;8.502;2022-07-06T04:44:21;19.70;99.90
2010;DHT22;1008;47.404;8.502;2022-07-06T04:46:47;19.60;99.90
2010;DHT22;1008;47.404;8.502;2022-07-06T04:49:14;19.70;99.90
2010;DHT22;1008;47.404;8.502;2022-07-06T04:51:41;19.80;99.90
2010;DHT22;1008;47.404;8.502;2022-07-06T04:54:07;20.00;99.90
2010;DHT22;1008;47.404;8.502;2022-07-06T04:56:34;20.00;99.90
2010;DHT22;1008;47.404;8.502;2022-07-06T04:59:01;20.00;99.90
2010;DHT22;1008;47.404;8.502;2022-07-06T05:01:29;20.10;99.90
2010;DHT22;1008;47.404;8.502;2022-07-06T05:03:56;19.90;99.90
2010;DHT22;1008;47.404;8.502;2022-07-06T05:06:22;20.20;99.90
2010;DHT22;1008;47.404;8.502;2022-07-06T05:08:49;20.10;99.90
2010;DHT22;1008;47.404;8.502;2022-07-06T05:11:16;20.10;99.90
2010;DHT22;1008;47.404;8.502;2022-07-06T05:13:43;19.90;99.90
2010;DHT22;1008;47.404;8.502;2022-07-06T05:16:09;20.00;99.90
2010;DHT22;1008;47.404;8.502;2022-07-06T05:18:38;20.10;99.90
2010;DHT22;1008;47.404;8.502;2022-07-06T05:21:04;20.00;99.90
2010;DHT22;1008;47.404;8.502;2022-07-06T05:23:31;19.90;99.90
2010;DHT22;1008;47.404;8.502;2022-07-06T05:25:58;19.80;99.90
2010;DHT22;1008;47.404;8.502;2022-07-06T05:28:25;20.00;99.90
2010;DHT22;1008;47.404;8.502;2022-07-06T05:30:51;20.00;99.90
2010;DHT22;1008;47.404;8.502;2022-07-06T05:33:18;19.90;99.90
2010;DHT22;1008;47.404;8.502;2022-07-06T05:35:46;20.10;99.90
2010;DHT22;1008;47.404;8.502;2022-07-06T05:38:13;20.20;99.90
2010;DHT22;1008;47.404;8.502;2022-07-06T05:40:40;20.30;99.90
2010;DHT22;1008;47.404;8.502;2022-07-06T05:43:07;20.40;99.90
2010;DHT22;1008;47.404;8.502;2022-07-06T05:45:34;20.30;99.90
2010;DHT22;1008;47.404;8.502;2022-07-06T05:48:00;20.60;99.90
2010;DHT22;1008;47.404;8.502;2022-07-06T05:50:44;20.50;99.90
2010;DHT22;1008;47.404;8.502;2022-07-06T05:53:12;20.40;99.90
2010;DHT22;1008;47.404;8.502;2022-07-06T05:55:39;20.70;99.90
2010;DHT22;1008;47.404;8.502;2022-07-06T05:58:06;20.50;99.90
2010;DHT22;1008;47.404;8.502;2022-07-06T06:00:33;20.60;99.90
2010;DHT22;1008;47.404;8.502;2022-07-06T06:03:00;20.90;99.90
2010;DHT22;1008;47.404;8.502;2022-07-06T06:05:27;20.90;99.90
2010;DHT22;1008;47.404;8.502;2022-07-06T06:07:54;21.00;99.90
2010;DHT22;1008;47.404;8.502;2022-07-06T06:10:22;21.10;99.90
2010;DHT22;1008;47.404;8.502;2022-07-06T06:12:50;21.30;99.90
2010;DHT22;1008;47.404;8.502;2022-07-06T06:15:17;21.20;99.90
2010;DHT22;1008;47.404;8.502;2022-07-06T06:17:44;21.00;99.90
2010;DHT22;1008;47.404;8.502;2022-07-06T06:20:12;21.10;99.90
2010;DHT22;1008;47.404;8.502;2022-07-06T06:22:47;21.10;99.90
2010;DHT22;1008;47.404;8.502;2022-07-06T06:25:14;21.40;99.90
2010;DHT22;1008;47.404;8.502;2022-07-06T06:27:42;21.10;99.90
2010;DHT22;1008;47.404;8.502;2022-07-06T06:30:10;21.20;99.90
2010;DHT22;1008;47.404;8.502;2022-07-06T06:32:37;21.20;99.90
2010;DHT22;1008;47.404;8.502;2022-07-06T06:35:04;21.30;99.90
2010;DHT22;1008;47.404;8.502;2022-07-06T06:37:32;21.40;99.90
2010;DHT22;1008;47.404;8.502;2022-07-06T06:39:59;21.60;99.90
2010;DHT22;1008;47.404;8.502;2022-07-06T06:42:26;21.70;99.90
2010;DHT22;1008;47.404;8.502;2022-07-06T06:44:54;21.80;99.90
2010;DHT22;1008;47.404;8.502;2022-07-06T06:47:21;21.90;99.90
2010;DHT22;1008;47.404;8.502;2022-07-06T06:49:48;21.70;99.90
2010;DHT22;1008;47.404;8.502;2022-07-06T06:52:14;21.80;99.90
2010;DHT22;1008;47.404;8.502;2022-07-06T06:54:41;21.80;99.90
2010;DHT22;1008;47.404;8.502;2022-07-06T06:57:08;22.00;99.90
2010;DHT22;1008;47.404;8.502;2022-07-06T06:59:35;22.10;99.90
2010;DHT22;1008;47.404;8.502;2022-07-06T07:02:03;22.10;99.90
2010;DHT22;1008;47.404;8.502;2022-07-06T07:04:30;21.90;99.90
2010;DHT22;1008;47.404;8.502;2022-07-06T07:06:56;21.80;99.90
2010;DHT22;1008;47.404;8.502;2022-07-06T07:09:24;21.90;99.90
2010;DHT22;1008;47.404;8.502;2022-07-06T07:11:51;21.60;99.90
2010;DHT22;1008;47.404;8.502;2022-07-06T07:14:18;21.80;99.90
2010;DHT22;1008;47.404;8.502;2022-07-06T07:16:44;22.00;99.90
2010;DHT22;1008;47.404;8.502;2022-07-06T07:19:13;22.20;99.90
2010;DHT22;1008;47.404;8.502;2022-07-06T07:21:39;22.30;99.90
2010;DHT22;1008;47.404;8.502;2022-07-06T07:24:07;22.20;99.90
2010;DHT22;1008;47.404;8.502;2022-07-06T07:26:34;22.30;99.90
2010;DHT22;1008;47.404;8.502;2022-07-06T07:29:00;22.30;99.90
2010;DHT22;1008;47.404;8.502;2022-07-06T07:31:27;22.70;99.90
2010;DHT22;1008;47.404;8.502;2022-07-06T07:33:54;22.80;99.90
2010;DHT22;1008;47.404;8.502;2022-07-06T07:36:24;22.70;99.90
2010;DHT22;1008;47.404;8.502;2022-07-06T07:38:50;22.80;99.90
2010;DHT22;1008;47.404;8.502;2022-07-06T07:41:17;23.00;99.90
2010;DHT22;1008;47.404;8.502;2022-07-06T07:43:44;23.00;99.90
2010;DHT22;1008;47.404;8.502;2022-07-06T07:46:11;22.90;99.90
2010;DHT22;1008;47.404;8.502;2022-07-06T07:48:37;22.90;99.90
2010;DHT22;1008;47.404;8.502;2022-07-06T07:51:04;23.20;99.90
2010;DHT22;1008;47.404;8.502;2022-07-06T07:53:32;23.30;99.90
2010;DHT22;1008;47.404;8.502;2022-07-06T07:56:00;23.40;99.90
2010;DHT22;1008;47.404;8.502;2022-07-06T07:58:27;23.60;99.90
2010;DHT22;1008;47.404;8.502;2022-07-06T08:00:53;23.30;99.90
2010;DHT22;1008;47.404;8.502;2022-07-06T08:03:20;23.40;99.90
2010;DHT22;1008;47.404;8.502;2022-07-06T08:05:47;23.30;99.30
2010;DHT22;1008;47.404;8.502;2022-07-06T08:08:14;23.30;99.90
2010;DHT22;1008;47.404;8.502;2022-07-06T08:10:42;23.50;99.90
2010;DHT22;1008;47.404;8.502;2022-07-06T08:13:09;23.90;99.90
2010;DHT22;1008;47.404;8.502;2022-07-06T08:15:36;24.20;99.90
2010;DHT22;1008;47.404;8.502;2022-07-06T08:18:03;24.40;99.90
2010;DHT22;1008;47.404;8.502;2022-07-06T08:20:30;24.40;96.50
2010;DHT22;1008;47.404;8.502;2022-07-06T08:22:56;24.60;98.20
2010;DHT22;1008;47.404;8.502;2022-07-06T08:25:23;24.80;98.30
2010;DHT22;1008;47.404;8.502;2022-07-06T08:27:51;24.60;95.70
2010;DHT22;1008;47.404;8.502;2022-07-06T08:30:18;24.50;96.50
2010;DHT22;1008;47.404;8.502;2022-07-06T08:32:45;24.40;94.70
2010;DHT22;1008;47.404;8.502;2022-07-06T08:35:12;24.30;95.80
2010;DHT22;1008;47.404;8.502;2022-07-06T08:37:39;24.20;98.80
2010;DHT22;1008;47.404;8.502;2022-07-06T08:40:07;24.70;97.30
2010;DHT22;1008;47.404;8.502;2022-07-06T08:42:35;24.40;97.20
2010;DHT22;1008;47.404;8.502;2022-07-06T08:45:05;24.60;96.50
2010;DHT22;1008;47.404;8.502;2022-07-06T08:47:35;24.90;95.00
2010;DHT22;1008;47.404;8.502;2022-07-06T08:50:03;24.50;95.50
2010;DHT22;1008;47.404;8.502;2022-07-06T08:52:31;24.30;97.70
2010;DHT22;1008;47.404;8.502;2022-07-06T08:54:58;24.20;96.70
2010;DHT22;1008;47.404;8.502;2022-07-06T08:57:26;24.30;97.80
2010;DHT22;1008;47.404;8.502;2022-07-06T08:59:53;24.80;96.20
2010;DHT22;1008;47.404;8.502;2022-07-06T09:02:24;25.00;96.20
2010;DHT22;1008;47.404;8.502;2022-07-06T09:04:53;24.90;94.60
2010;DHT22;1008;47.404;8.502;2022-07-06T09:07:21;24.90;95.90
2010;DHT22;1008;47.404;8.502;2022-07-06T09:09:49;25.00;96.30
2010;DHT22;1008;47.404;8.502;2022-07-06T09:12:17;25.10;94.90
2010;DHT22;1008;47.404;8.502;2022-07-06T09:14:44;25.10;95.40
2010;DHT22;1008;47.404;8.502;2022-07-06T09:17:12;25.50;95.30
2010;DHT22;1008;47.404;8.502;2022-07-06T09:19:40;25.60;95.20
2010;DHT22;1008;47.404;8.502;2022-07-06T09:22:07;25.50;93.60
2010;DHT22;1008;47.404;8.502;2022-07-06T09:24:41;25.40;92.80
2010;DHT22;1008;47.404;8.502;2022-07-06T09:27:15;25.10;92.00
2010;DHT22;1008;47.404;8.502;2022-07-06T09:29:42;25.40;91.90
2010;DHT22;1008;47.404;8.502;2022-07-06T09:32:09;25.40;91.40
2010;DHT22;1008;47.404;8.502;2022-07-06T09:34:45;25.10;92.40
2010;DHT22;1008;47.404;8.502;2022-07-06T09:37:12;25.40;92.30
2010;DHT22;1008;47.404;8.502;2022-07-06T09:39:40;25.50;91.20
2010;DHT22;1008;47.404;8.502;2022-07-06T09:42:07;25.70;90.70
2010;DHT22;1008;47.404;8.502;2022-07-06T09:44:37;25.80;90.50
2010;DHT22;1008;47.404;8.502;2022-07-06T09:47:06;25.90;88.80
2010;DHT22;1008;47.404;8.502;2022-07-06T09:49:33;26.10;90.20
2010;DHT22;1008;47.404;8.502;2022-07-06T09:52:03;26.30;88.50
2010;DHT22;1008;47.404;8.502;2022-07-06T09:54:31;26.40;90.30
2010;DHT22;1008;47.404;8.502;2022-07-06T09:56:58;26.90;84.60
2010;DHT22;1008;47.404;8.502;2022-07-06T09:59:27;26.40;82.60
2010;DHT22;1008;47.404;8.502;2022-07-06T10:01:55;26.60;83.20
2010;DHT22;1008;47.404;8.502;2022-07-06T10:04:23;27.00;83.00
2010;DHT22;1008;47.404;8.502;2022-07-06T10:06:51;26.70;78.00
2010;DHT22;1008;47.404;8.502;2022-07-06T10:09:20;26.80;81.00
2010;DHT22;1008;47.404;8.502;2022-07-06T10:11:50;27.20;84.50
2010;DHT22;1008;47.404;8.502;2022-07-06T10:14:18;27.20;80.00
2010;DHT22;1008;47.404;8.502;2022-07-06T10:16:46;27.10;78.70
2010;DHT22;1008;47.404;8.502;2022-07-06T10:19:14;27.10;79.10
2010;DHT22;1008;47.404;8.502;2022-07-06T10:21:42;27.00;81.40
2010;DHT22;1008;47.404;8.502;2022-07-06T10:24:09;26.90;79.10
2010;DHT22;1008;47.404;8.502;2022-07-06T10:26:39;26.80;77.60
2010;DHT22;1008;47.404;8.502;2022-07-06T10:29:07;26.40;78.00
2010;DHT22;1008;47.404;8.502;2022-07-06T10:31:35;26.60;81.40
2010;DHT22;1008;47.404;8.502;2022-07-06T10:34:04;27.20;83.90
2010;DHT22;1008;47.404;8.502;2022-07-06T10:36:37;27.10;78.00
2010;DHT22;1008;47.404;8.502;2022-07-06T10:39:04;27.20;82.30
2010;DHT22;1008;47.404;8.502;2022-07-06T10:41:52;27.10;77.50
2010;DHT22;1008;47.404;8.502;2022-07-06T10:44:21;27.10;77.00
2010;DHT22;1008;47.404;8.502;2022-07-06T10:46:53;26.80;87.90
2010;DHT22;1008;47.404;8.502;2022-07-06T10:49:21;27.30;81.70
2010;DHT22;1008;47.404;8.502;2022-07-06T10:51:48;27.60;83.80
2010;DHT22;1008;47.404;8.502;2022-07-06T10:54:17;28.00;81.10
2010;DHT22;1008;47.404;8.502;2022-07-06T10:56:45;28.00;77.20
2010;DHT22;1008;47.404;8.502;2022-07-06T10:59:15;27.90;79.00
2010;DHT22;1008;47.404;8.502;2022-07-06T11:02:13;27.50;81.70
2010;DHT22;1008;47.404;8.502;2022-07-06T11:04:40;27.20;79.70
2010;DHT22;1008;47.404;8.502;2022-07-06T11:07:10;26.90;82.20
2010;DHT22;1008;47.404;8.502;2022-07-06T11:09:37;26.60;82.20
2010;DHT22;1008;47.404;8.502;2022-07-06T11:12:16;26.80;86.20
2010;DHT22;1008;47.404;8.502;2022-07-06T11:14:44;27.00;82.60
2010;DHT22;1008;47.404;8.502;2022-07-06T11:17:13;27.20;78.60
2010;DHT22;1008;47.404;8.502;2022-07-06T11:19:48;27.00;79.00
2010;DHT22;1008;47.404;8.502;2022-07-06T11:22:17;27.50;84.40
2010;DHT22;1008;47.404;8.502;2022-07-06T11:24:45;27.50;84.30
2010;DHT22;1008;47.404;8.502;2022-07-06T11:27:12;28.00;85.10
2010;DHT22;1008;47.404;8.502;2022-07-06T11:29:39;28.00;83.30
2010;DHT22;1008;47.404;8.502;2022-07-06T11:32:08;28.00;80.90
2010;DHT22;1008;47.404;8.502;2022-07-06T11:34:39;27.50;81.70
2010;DHT22;1008;47.404;8.502;2022-07-06T11:37:07;27.70;82.50
2010;DHT22;1008;47.404;8.502;2022-07-06T11:39:36;28.00;83.00
2010;DHT22;1008;47.404;8.502;2022-07-06T11:42:05;28.50;81.30
2010;DHT22;1008;47.404;8.502;2022-07-06T11:44:33;28.60;79.70
2010;DHT22;1008;47.404;8.502;2022-07-06T11:46:59;28.70;76.50
2010;DHT22;1008;47.404;8.502;2022-07-06T11:49:29;28.70;84.10
2010;DHT22;1008;47.404;8.502;2022-07-06T11:51:58;28.80;78.00
2010;DHT22;1008;47.404;8.502;2022-07-06T11:54:25;29.10;76.90
2010;DHT22;1008;47.404;8.502;2022-07-06T11:56:54;29.10;73.50
2010;DHT22;1008;47.404;8.502;2022-07-06T11:59:23;28.30;73.10
2010;DHT22;1008;47.404;8.502;2022-07-06T12:01:57;27.80;74.00
2010;DHT22;1008;47.404;8.502;2022-07-06T12:04:25;27.60;77.00
2010;DHT22;1008;47.404;8.502;2022-07-06T12:06:52;27.90;78.40
2010;DHT22;1008;47.404;8.502;2022-07-06T12:09:21;28.50;80.30
2010;DHT22;1008;47.404;8.502;2022-07-06T12:11:48;29.00;72.30
2010;DHT22;1008;47.404;8.502;2022-07-06T12:14:17;28.40;72.00
2010;DHT22;1008;47.404;8.502;2022-07-06T12:16:45;27.90;73.80
2010;DHT22;1008;47.404;8.502;2022-07-06T12:19:12;27.30;72.10
2010;DHT22;1008;47.404;8.502;2022-07-06T12:21:44;27.20;76.20
2010;DHT22;1008;47.404;8.502;2022-07-06T12:24:17;27.30;76.10
2010;DHT22;1008;47.404;8.502;2022-07-06T12:26:46;27.40;72.70
2010;DHT22;1008;47.404;8.502;2022-07-06T12:29:13;27.30;75.20
2010;DHT22;1008;47.404;8.502;2022-07-06T12:31:41;26.90;74.40
2010;DHT22;1008;47.404;8.502;2022-07-06T12:34:13;26.90;74.50
2010;DHT22;1008;47.404;8.502;2022-07-06T12:36:45;27.00;73.40
2010;DHT22;1008;47.404;8.502;2022-07-06T12:39:12;27.00;74.00
2010;DHT22;1008;47.404;8.502;2022-07-06T12:41:46;27.20;73.90
2010;DHT22;1008;47.404;8.502;2022-07-06T12:44:14;27.00;73.70
2010;DHT22;1008;47.404;8.502;2022-07-06T12:46:42;27.00;73.90
2010;DHT22;1008;47.404;8.502;2022-07-06T12:49:14;27.10;72.60
2010;DHT22;1008;47.404;8.502;2022-07-06T12:51:52;27.10;73.30
2010;DHT22;1008;47.404;8.502;2022-07-06T12:54:19;27.30;71.80
2010;DHT22;1008;47.404;8.502;2022-07-06T12:56:58;27.30;72.20
2010;DHT22;1008;47.404;8.502;2022-07-06T12:59:25;27.10;71.30
2010;DHT22;1008;47.404;8.502;2022-07-06T13:01:52;27.00;68.80
2010;DHT22;1008;47.404;8.502;2022-07-06T13:04:22;26.90;72.00
2010;DHT22;1008;47.404;8.502;2022-07-06T13:06:49;27.00;68.70
2010;DHT22;1008;47.404;8.502;2022-07-06T13:09:16;27.20;68.50
2010;DHT22;1008;47.404;8.502;2022-07-06T13:11:44;27.60;73.00
2010;DHT22;1008;47.404;8.502;2022-07-06T13:14:12;27.90;68.30
2010;DHT22;1008;47.404;8.502;2022-07-06T13:16:39;27.20;69.20
2010;DHT22;1008;47.404;8.502;2022-07-06T13:19:06;27.20;69.50
2010;DHT22;1008;47.404;8.502;2022-07-06T13:21:32;27.40;70.20
2010;DHT22;1008;47.404;8.502;2022-07-06T13:23:59;27.10;70.20
2010;DHT22;1008;47.404;8.502;2022-07-06T13:26:26;27.00;67.80
2010;DHT22;1008;47.404;8.502;2022-07-06T13:28:53;26.80;68.20
2010;DHT22;1008;47.404;8.502;2022-07-06T13:31:21;26.90;67.70
2010;DHT22;1008;47.404;8.502;2022-07-06T13:33:47;27.10;68.70
2010;DHT22;1008;47.404;8.502;2022-07-06T13:36:14;27.20;70.30
2010;DHT22;1008;47.404;8.502;2022-07-06T13:38:41;27.50;69.70
2010;DHT22;1008;47.404;8.502;2022-07-06T13:41:08;27.60;67.80
2010;DHT22;1008;47.404;8.502;2022-07-06T13:43:36;27.60;65.30
2010;DHT22;1008;47.404;8.502;2022-07-06T13:46:03;27.50;68.00
2010;DHT22;1008;47.404;8.502;2022-07-06T13:48:32;27.20;66.70
2010;DHT22;1008;47.404;8.502;2022-07-06T13:50:59;27.30;66.20
2010;DHT22;1008;47.404;8.502;2022-07-06T13:53:26;27.40;65.50
2010;DHT22;1008;47.404;8.502;2022-07-06T13:55:54;27.40;65.70
2010;DHT22;1008;47.404;8.502;2022-07-06T13:58:20;27.80;66.70
2010;DHT22;1008;47.404;8.502;2022-07-06T14:00:47;27.50;65.30
2010;DHT22;1008;47.404;8.502;2022-07-06T14:03:14;27.60;66.00
2010;DHT22;1008;47.404;8.502;2022-07-06T14:05:42;27.70;67.30
2010;DHT22;1008;47.404;8.502;2022-07-06T14:08:09;27.40;66.60
2010;DHT22;1008;47.404;8.502;2022-07-06T14:10:36;27.40;64.60
2010;DHT22;1008;47.404;8.502;2022-07-06T14:13:03;27.70;64.60
2010;DHT22;1008;47.404;8.502;2022-07-06T14:15:29;27.50;65.10
2010;DHT22;1008;47.404;8.502;2022-07-06T14:17:56;27.40;65.50
2010;DHT22;1008;47.404;8.502;2022-07-06T14:20:23;27.50;64.10
2010;DHT22;1008;47.404;8.502;2022-07-06T14:22:51;27.70;64.50
2010;DHT22;1008;47.404;8.502;2022-07-06T14:25:18;27.90;65.80
2010;DHT22;1008;47.404;8.502;2022-07-06T14:27:45;27.60;63.50
2010;DHT22;1008;47.404;8.502;2022-07-06T14:30:12;27.70;62.70
2010;DHT22;1008;47.404;8.502;2022-07-06T14:32:39;27.70;60.60
2010;DHT22;1008;47.404;8.502;2022-07-06T14:35:06;27.50;62.10
2010;DHT22;1008;47.404;8.502;2022-07-06T14:37:33;27.40;63.30
2010;DHT22;1008;47.404;8.502;2022-07-06T14:40:01;27.30;62.60
2010;DHT22;1008;47.404;8.502;2022-07-06T14:42:27;27.20;61.30
2010;DHT22;1008;47.404;8.502;2022-07-06T14:44:54;27.20;63.60
2010;DHT22;1008;47.404;8.502;2022-07-06T14:47:21;27.30;59.10
2010;DHT22;1008;47.404;8.502;2022-07-06T14:49:48;27.10;59.10
2010;DHT22;1008;47.404;8.502;2022-07-06T14:52:16;27.20;60.70
2010;DHT22;1008;47.404;8.502;2022-07-06T14:54:43;27.40;58.50
2010;DHT22;1008;47.404;8.502;2022-07-06T14:57:11;27.40;58.40
2010;DHT22;1008;47.404;8.502;2022-07-06T14:59:38;27.60;58.30
2010;DHT22;1008;47.404;8.502;2022-07-06T15:02:05;27.50;57.70
2010;DHT22;1008;47.404;8.502;2022-07-06T15:04:31;27.30;58.80
2010;DHT22;1008;47.404;8.502;2022-07-06T15:06:58;27.30;58.90
2010;DHT22;1008;47.404;8.502;2022-07-06T15:09:25;27.40;58.60
2010;DHT22;1008;47.404;8.502;2022-07-06T15:11:54;27.30;57.40
2010;DHT22;1008;47.404;8.502;2022-07-06T15:14:22;27.30;56.00
2010;DHT22;1008;47.404;8.502;2022-07-06T15:16:49;27.30;56.10
2010;DHT22;1008;47.404;8.502;2022-07-06T15:19:18;27.50;57.50
2010;DHT22;1008;47.404;8.502;2022-07-06T15:21:44;27.70;54.60
2010;DHT22;1008;47.404;8.502;2022-07-06T15:24:11;27.40;56.90
2010;DHT22;1008;47.404;8.502;2022-07-06T15:26:38;27.30;54.90
2010;DHT22;1008;47.404;8.502;2022-07-06T15:29:06;27.20;54.80
2010;DHT22;1008;47.404;8.502;2022-07-06T15:31:34;27.30;54.20
2010;DHT22;1008;47.404;8.502;2022-07-06T15:34:00;27.10;53.70
2010;DHT22;1008;47.404;8.502;2022-07-06T15:36:27;27.20;54.60
2010;DHT22;1008;47.404;8.502;2022-07-06T15:38:54;27.10;52.60
2010;DHT22;1008;47.404;8.502;2022-07-06T15:41:21;27.50;51.90
2010;DHT22;1008;47.404;8.502;2022-07-06T15:43:48;27.10;51.20
2010;DHT22;1008;47.404;8.502;2022-07-06T15:46:15;27.60;53.10
2010;DHT22;1008;47.404;8.502;2022-07-06T15:48:43;27.30;51.90
2010;DHT22;1008;47.404;8.502;2022-07-06T15:51:10;27.50;52.10
2010;DHT22;1008;47.404;8.502;2022-07-06T15:53:37;27.40;53.00
2010;DHT22;1008;47.404;8.502;2022-07-06T15:56:04;27.80;52.40
2010;DHT22;1008;47.404;8.502;2022-07-06T15:58:30;27.80;50.70
2010;DHT22;1008;47.404;8.502;2022-07-06T16:00:57;27.50;49.10
2010;DHT22;1008;47.404;8.502;2022-07-06T16:03:24;27.10;49.50
2010;DHT22;1008;47.404;8.502;2022-07-06T16:05:52;27.10;50.30